Time;durP1;ratioP1;P1;durP2;ratioP2;P2;SDS_P1;SDS_P2;PMS_P1;PMS_P2;Temp;Humidity;BMP_temperature;BMP_pressure;BME280_temperature;BME280_humidity;BME280_pressure;Samples;Min_cycle;Max_cycle;Signal;HPM_P1;HPM_P2
2023/10/15 00:01:53;;;;;;;7.80;3.15;;;14.10;99.90;;;;;;5113522;28;20077;-67
2023/10/15 00:04:19;;;;;;;7.68;3.03;;;14.40;99.90;;;;;;5113523;28;20038;-67
2023/10/15 00:06:45;;;;;;;8.35;2.90;;;14.50;99.90;;;;;;5113857;28;20024;-67
2023/10/15 00:09:13;;;;;;;7.70;2.75;;;14.60;99.90;;;;;;5114038;28;20046;-66
2023/10/15 00:11:40;;;;;;;7.35;2.90;;;14.60;99.90;;;;;;5113243;28;20102;-66
2023/10/15 00:14:06;;;;;;;7.45;2.95;;;14.70;99.90;;;;;;5113909;28;20439;-66
2023/10/15 00:16:32;;;;;;;5.47;3.00;;;14.70;99.90;;;;;;5113301;28;20024;-66
2023/10/15 00:19:05;;;;;;;8.55;3.50;;;14.60;99.90;;;;;;5113448;28;20088;-66
2023/10/15 00:21:31;;;;;;;9.70;3.60;;;14.70;99.90;;;;;;5113533;28;20245;-67
2023/10/15 00:23:56;;;;;;;10.30;3.65;;;14.70;99.90;;;;;;5113260;28;20023;-66
2023/10/15 00:26:22;;;;;;;7.03;3.47;;;14.70;99.90;;;;;;5113312;28;20084;-67
2023/10/15 00:28:48;;;;;;;10.68;3.85;;;14.60;99.90;;;;;;5113593;28;20131;-66
2023/10/15 00:31:13;;;;;;;9.35;3.38;;;14.50;99.90;;;;;;5113155;28;20459;-66
2023/10/15 00:33:46;;;;;;;10.95;3.78;;;14.40;99.90;;;;;;5113267;28;20035;-66
2023/10/15 00:36:13;;;;;;;11.30;3.90;;;14.10;99.90;;;;;;5113172;28;20428;-67
2023/10/15 00:38:46;;;;;;;9.65;3.95;;;13.90;99.90;;;;;;5113668;28;20050;-66
2023/10/15 00:41:13;;;;;;;9.48;3.70;;;13.80;99.90;;;;;;5113060;28;20386;-67
2023/10/15 00:43:55;;;;;;;10.65;4.00;;;13.60;99.90;;;;;;5112849;28;20019;-66
2023/10/15 00:46:27;;;;;;;8.65;3.53;;;13.60;99.90;;;;;;5094733;28;20027;-67
2023/10/15 00:48:56;;;;;;;10.50;3.72;;;13.50;99.90;;;;;;5112956;28;20081;-66
2023/10/15 00:51:22;;;;;;;9.43;3.50;;;13.40;99.90;;;;;;5113403;28;20497;-66
2023/10/15 00:53:58;;;;;;;6.90;3.50;;;13.30;99.90;;;;;;5112809;28;20020;-67
2023/10/15 00:56:33;;;;;;;8.15;3.53;;;13.30;99.90;;;;;;5112773;28;20028;-66
2023/10/15 01:01:38;;;;;;;7.75;3.38;;;13.10;99.90;;;;;;5112746;28;20130;-67
2023/10/15 01:04:06;;;;;;;10.02;3.58;;;13.20;99.90;;;;;;5112676;28;20028;-66
2023/10/15 01:06:40;;;;;;;8.43;3.50;;;13.10;99.90;;;;;;5112723;28;20031;-66
2023/10/15 01:09:19;;;;;;;7.68;3.30;;;13.00;99.90;;;;;;5112579;28;20562;-66
2023/10/15 01:11:57;;;;;;;9.07;3.60;;;12.90;99.90;;;;;;5112395;28;20462;-66
2023/10/15 01:14:31;;;;;;;11.27;3.47;;;12.90;99.90;;;;;;5112197;28;20128;-67
2023/10/15 01:16:59;;;;;;;9.43;3.85;;;12.80;99.90;;;;;;5112465;28;20026;-66
2023/10/15 01:19:33;;;;;;;7.38;3.38;;;12.80;99.90;;;;;;5112885;28;20061;-66
2023/10/15 01:22:04;;;;;;;11.52;3.58;;;12.70;99.90;;;;;;5112464;28;20028;-67
2023/10/15 01:24:38;;;;;;;8.55;3.58;;;12.70;99.90;;;;;;5111813;28;20034;-66
2023/10/15 01:27:09;;;;;;;7.45;3.40;;;12.70;99.90;;;;;;5111842;28;20024;-67
2023/10/15 01:29:41;;;;;;;8.88;3.42;;;12.70;99.90;;;;;;5111436;28;20131;-67
2023/10/15 01:32:10;;;;;;;7.93;3.28;;;12.70;99.90;;;;;;5112215;28;20031;-67
2023/10/15 01:34:37;;;;;;;9.02;3.50;;;12.70;99.90;;;;;;5112400;28;20026;-67
2023/10/15 01:37:14;;;;;;;9.70;3.92;;;12.60;99.90;;;;;;5112159;28;20088;-66
2023/10/15 01:39:40;;;;;;;9.90;3.50;;;12.60;99.90;;;;;;5111934;28;20058;-67
2023/10/15 01:42:07;;;;;;;8.43;3.90;;;12.90;99.90;;;;;;5111558;28;20027;-66
2023/10/15 01:44:38;;;;;;;7.80;3.30;;;13.20;99.90;;;;;;5112217;28;20039;-66
2023/10/15 01:49:33;;;;;;;7.38;3.25;;;13.40;99.90;;;;;;5112315;28;20099;-67
2023/10/15 01:52:09;;;;;;;8.50;3.33;;;13.50;99.90;;;;;;5111635;28;20023;-67
2023/10/15 01:54:38;;;;;;;8.65;3.28;;;13.60;99.90;;;;;;5111730;28;20051;-66
2023/10/15 01:57:06;;;;;;;7.50;3.35;;;13.70;99.90;;;;;;5111449;28;20024;-66
2023/10/15 01:59:41;;;;;;;7.50;3.22;;;13.60;99.90;;;;;;5111640;28;20028;-66
2023/10/15 02:02:13;;;;;;;6.35;3.00;;;13.70;99.90;;;;;;5112170;28;20034;-66
2023/10/15 02:04:44;;;;;;;6.50;2.78;;;13.70;99.90;;;;;;5111695;28;20039;-66
2023/10/15 02:07:14;;;;;;;8.35;3.00;;;13.70;99.90;;;;;;5111627;28;20035;-67
2023/10/15 02:09:43;;;;;;;8.13;3.40;;;13.70;99.90;;;;;;5111296;28;20113;-67
2023/10/15 02:12:18;;;;;;;8.00;3.33;;;13.50;99.90;;;;;;5111221;28;20030;-67
2023/10/15 02:14:51;;;;;;;6.90;2.90;;;13.30;99.90;;;;;;5111820;28;20087;-67
2023/10/15 02:17:23;;;;;;;7.28;3.42;;;13.20;99.90;;;;;;5111540;28;20028;-67
2023/10/15 02:19:50;;;;;;;7.40;3.55;;;13.10;99.90;;;;;;5111584;28;20020;-67
2023/10/15 02:22:16;;;;;;;9.82;3.72;;;13.00;99.90;;;;;;5111429;28;20397;-67
2023/10/15 02:24:48;;;;;;;7.65;3.00;;;12.90;99.90;;;;;;5093288;28;20034;-67
2023/10/15 02:27:23;;;;;;;7.90;3.55;;;12.90;99.90;;;;;;5111541;28;20028;-67
2023/10/15 02:29:50;;;;;;;7.20;3.00;;;12.80;99.90;;;;;;5111273;28;20064;-66
2023/10/15 02:34:52;;;;;;;8.48;3.40;;;12.80;99.90;;;;;;5111378;28;20606;-67
2023/10/15 02:37:19;;;;;;;7.20;3.10;;;12.80;99.90;;;;;;5093073;28;20021;-67
2023/10/15 02:39:51;;;;;;;8.27;3.15;;;12.80;99.90;;;;;;5111188;28;20122;-67
2023/10/15 02:42:20;;;;;;;7.93;3.65;;;12.80;99.90;;;;;;5112630;28;20028;-67
2023/10/15 02:44:53;;;;;;;8.05;3.33;;;12.90;99.90;;;;;;5115403;28;20497;-66
2023/10/15 02:48:09;;;;;;;7.85;3.20;;;13.00;99.90;;;;;;5115606;28;20030;-67
2023/10/15 02:50:15;;;;;;;7.15;3.30;;;13.00;99.90;;;;;;5101638;28;20050;-67
2023/10/15 02:52:43;;;;;;;9.63;3.28;;;13.00;99.90;;;;;;5115456;28;20019;-67
2023/10/15 02:55:11;;;;;;;8.35;3.10;;;12.80;99.90;;;;;;5115122;28;20032;-67
2023/10/15 02:57:40;;;;;;;6.28;2.80;;;12.80;99.90;;;;;;5115171;28;20032;-67
2023/10/15 03:00:14;;;;;;;8.18;3.50;;;12.80;99.90;;;;;;5115019;28;20047;-67
2023/10/15 03:02:43;;;;;;;8.40;3.17;;;12.80;99.90;;;;;;5115163;28;20047;-67
2023/10/15 03:05:13;;;;;;;7.80;3.50;;;12.80;99.90;;;;;;5114976;28;20111;-67
2023/10/15 03:07:42;;;;;;;7.88;3.55;;;12.80;99.90;;;;;;5114848;28;20020;-67
2023/10/15 03:10:13;;;;;;;7.47;3.53;;;12.80;99.90;;;;;;5114567;28;20043;-67
2023/10/15 03:12:44;;;;;;;7.97;3.72;;;12.80;99.90;;;;;;5115192;28;20406;-67
2023/10/15 03:15:17;;;;;;;8.80;3.50;;;12.80;99.90;;;;;;5114726;28;20570;-66
2023/10/15 03:17:43;;;;;;;7.03;3.50;;;12.90;99.90;;;;;;5114708;28;20107;-66
2023/10/15 03:22:44;;;;;;;7.43;3.33;;;13.50;99.90;;;;;;5115167;28;20032;-66
2023/10/15 03:25:13;;;;;;;7.60;3.33;;;13.70;99.90;;;;;;5114167;28;20031;-67
2023/10/15 03:27:54;;;;;;;9.40;3.50;;;13.90;99.90;;;;;;5114365;28;20516;-66
2023/10/15 03:30:23;;;;;;;7.75;3.60;;;13.80;99.90;;;;;;5114739;28;20042;-67
2023/10/15 03:32:49;;;;;;;7.55;3.17;;;13.80;99.90;;;;;;5114611;28;20045;-67
2023/10/15 03:38:23;;;;;;;8.70;3.03;;;13.80;99.90;;;;;;5051058;28;20083;-67
2023/10/15 03:40:50;;;;;;;4.82;2.90;;;13.70;99.90;;;;;;5051253;28;20045;-66
2023/10/15 03:43:20;;;;;;;6.57;3.38;;;13.80;99.90;;;;;;5051706;28;20079;-67
2023/10/15 03:45:55;;;;;;;7.97;3.40;;;13.70;99.90;;;;;;5051261;28;20098;-67
2023/10/15 03:48:29;;;;;;;7.40;3.05;;;13.60;99.90;;;;;;5051132;28;20132;-67
2023/10/15 03:50:55;;;;;;;7.72;3.25;;;13.40;99.90;;;;;;5051134;28;20028;-67
2023/10/15 03:53:27;;;;;;;8.15;3.40;;;13.30;99.90;;;;;;5050132;28;20028;-67
2023/10/15 03:55:56;;;;;;;8.77;3.47;;;13.20;99.90;;;;;;5051087;28;20021;-67
2023/10/15 03:58:23;;;;;;;7.40;3.10;;;13.10;99.90;;;;;;5051020;28;20029;-67
2023/10/15 04:01:00;;;;;;;6.78;3.15;;;13.00;99.90;;;;;;5051485;28;20511;-66
2023/10/15 04:03:28;;;;;;;7.35;3.20;;;12.90;99.90;;;;;;5050971;28;20028;-67
2023/10/15 04:06:01;;;;;;;8.77;3.40;;;12.90;99.90;;;;;;5050820;28;20067;-66
2023/10/15 04:08:27;;;;;;;9.75;3.40;;;12.80;99.90;;;;;;5050258;28;20040;-67
2023/10/15 04:10:55;;;;;;;8.80;3.00;;;12.80;99.90;;;;;;5034050;28;20076;-67
2023/10/15 04:13:21;;;;;;;9.50;3.42;;;12.80;99.90;;;;;;5070602;28;20055;-66
2023/10/15 04:15:49;;;;;;;7.85;3.17;;;12.80;99.90;;;;;;5113350;28;20433;-67
2023/10/15 04:18:14;;;;;;;6.50;3.10;;;12.80;99.90;;;;;;5113948;28;20478;-67
2023/10/15 04:20:42;;;;;;;9.15;3.20;;;12.70;99.90;;;;;;5113663;28;20030;-67
2023/10/15 04:23:21;;;;;;;8.25;3.15;;;12.70;99.90;;;;;;5113260;28;20035;-66
2023/10/15 04:25:47;;;;;;;7.30;2.90;;;12.70;99.90;;;;;;5113334;28;20489;-66
2023/10/15 04:28:14;;;;;;;7.53;2.97;;;12.70;99.90;;;;;;5113549;28;20600;-66
2023/10/15 04:30:40;;;;;;;7.72;3.50;;;12.60;99.90;;;;;;5113351;28;20059;-67
2023/10/15 04:33:18;;;;;;;8.63;3.10;;;12.70;99.90;;;;;;5094868;28;20474;-66
2023/10/15 04:35:43;;;;;;;7.47;3.03;;;12.80;99.90;;;;;;5113231;28;20030;-67
2023/10/15 04:38:15;;;;;;;9.27;3.63;;;12.80;99.90;;;;;;5113118;28;20031;-67
2023/10/15 04:43:17;;;;;;;9.25;3.30;;;12.80;99.90;;;;;;5113469;28;20024;-67
2023/10/15 04:45:44;;;;;;;8.75;3.80;;;12.80;99.90;;;;;;5113099;28;20405;-67
2023/10/15 04:48:15;;;;;;;8.32;3.38;;;12.90;99.90;;;;;;5113029;28;20016;-67
2023/10/15 04:50:43;;;;;;;7.90;3.40;;;12.90;99.90;;;;;;5112794;28;20028;-66
2023/10/15 04:53:23;;;;;;;7.22;3.42;;;12.90;99.90;;;;;;5112880;28;20031;-66
2023/10/15 04:55:50;;;;;;;10.20;3.60;;;12.90;99.90;;;;;;5112865;28;20544;-66
2023/10/15 04:58:16;;;;;;;10.05;3.65;;;13.20;99.90;;;;;;5112762;28;20558;-66
2023/10/15 05:00:47;;;;;;;7.05;3.53;;;13.50;99.90;;;;;;5113145;28;20089;-66
2023/10/15 05:03:14;;;;;;;9.82;4.00;;;13.70;99.90;;;;;;5112656;28;20039;-66
2023/10/15 05:05:42;;;;;;;7.18;3.65;;;13.70;99.90;;;;;;5111341;28;20023;-67
2023/10/15 05:08:11;;;;;;;8.80;3.40;;;13.70;99.90;;;;;;5112714;28;20046;-66
2023/10/15 05:10:38;;;;;;;8.35;3.80;;;13.90;99.90;;;;;;5112891;28;20035;-67
2023/10/15 05:13:04;;;;;;;6.85;3.00;;;13.90;99.90;;;;;;5112142;28;20413;-67
2023/10/15 05:15:30;;;;;;;7.90;3.10;;;13.90;99.90;;;;;;5112891;28;20031;-67
2023/10/15 05:17:56;;;;;;;7.78;2.90;;;14.00;99.90;;;;;;5112409;28;20027;-66
2023/10/15 05:20:22;;;;;;;9.75;4.03;;;14.00;99.90;;;;;;5112006;28;20032;-66
2023/10/15 05:22:48;;;;;;;8.60;3.05;;;13.80;99.90;;;;;;5112302;28;20104;-66
2023/10/15 05:25:20;;;;;;;7.95;3.05;;;13.80;99.90;;;;;;5112152;28;20038;-67
2023/10/15 05:27:49;;;;;;;7.43;2.90;;;13.80;99.90;;;;;;5109300;28;20433;-66
2023/10/15 05:30:15;;;;;;;8.88;3.50;;;13.60;99.90;;;;;;5071605;28;20032;-67
2023/10/15 05:32:45;;;;;;;6.75;3.00;;;13.50;99.90;;;;;;5071369;28;20020;-66
2023/10/15 05:35:11;;;;;;;7.55;3.30;;;13.40;99.90;;;;;;5070973;28;20525;-67
2023/10/15 05:37:41;;;;;;;6.72;3.22;;;13.30;99.90;;;;;;5071532;28;20100;-67
2023/10/15 05:40:08;;;;;;;5.28;2.90;;;13.20;99.90;;;;;;5071407;28;20036;-66
2023/10/15 05:42:35;;;;;;;7.82;2.97;;;13.10;99.90;;;;;;5053506;28;20021;-67
2023/10/15 05:45:01;;;;;;;6.68;3.08;;;13.10;99.90;;;;;;5071418;28;20032;-66
2023/10/15 05:47:29;;;;;;;8.35;3.00;;;13.00;99.90;;;;;;5071345;28;20020;-67
2023/10/15 05:49:55;;;;;;;8.27;3.22;;;13.00;99.90;;;;;;5071365;28;20036;-67
2023/10/15 05:52:21;;;;;;;8.88;2.80;;;13.00;99.90;;;;;;5071195;28;20036;-66
2023/10/15 05:54:53;;;;;;;8.00;2.83;;;12.90;99.90;;;;;;5071106;28;20115;-66
2023/10/15 05:57:21;;;;;;;6.60;2.85;;;12.90;99.90;;;;;;5071278;28;20055;-66
2023/10/15 05:59:48;;;;;;;8.18;3.10;;;12.90;99.90;;;;;;5070920;28;20103;-66
2023/10/15 06:02:13;;;;;;;6.93;2.90;;;12.90;99.90;;;;;;5070972;28;20036;-66
2023/10/15 06:04:39;;;;;;;5.72;2.50;;;12.90;99.90;;;;;;5071278;28;20155;-66
2023/10/15 06:07:05;;;;;;;6.15;2.90;;;12.80;99.90;;;;;;5071192;28;20173;-66
2023/10/15 06:09:36;;;;;;;7.72;2.92;;;12.80;99.90;;;;;;5070933;28;20039;-66
2023/10/15 06:12:04;;;;;;;7.15;3.13;;;12.80;99.90;;;;;;5070971;28;20035;-66
2023/10/15 06:14:30;;;;;;;8.73;3.00;;;12.80;99.90;;;;;;5071085;28;20028;-65
2023/10/15 06:16:56;;;;;;;5.68;3.25;;;12.80;99.90;;;;;;5070666;28;20031;-67
2023/10/15 06:19:22;;;;;;;8.52;3.50;;;12.70;99.90;;;;;;5071007;28;20047;-66
2023/10/15 06:21:47;;;;;;;6.72;3.00;;;12.70;99.90;;;;;;5070945;28;20572;-68
2023/10/15 06:24:14;;;;;;;6.60;3.30;;;12.70;99.90;;;;;;5076560;28;20024;-66
2023/10/15 06:26:40;;;;;;;8.55;3.63;;;12.70;99.90;;;;;;5091218;28;20035;-66
2023/10/15 06:29:06;;;;;;;7.50;3.40;;;12.60;99.90;;;;;;5103673;28;20447;-65
2023/10/15 06:31:32;;;;;;;8.13;3.25;;;12.70;99.90;;;;;;5110984;28;20111;-67
2023/10/15 06:33:57;;;;;;;6.00;2.97;;;12.60;99.90;;;;;;5111097;28;20103;-65
2023/10/15 06:36:23;;;;;;;9.18;3.78;;;12.70;99.90;;;;;;5111278;28;20047;-66
2023/10/15 06:38:52;;;;;;;8.57;3.50;;;12.90;99.90;;;;;;5111369;28;20102;-66
2023/10/15 06:41:17;;;;;;;5.90;2.97;;;13.10;99.90;;;;;;5111772;28;20402;-66
2023/10/15 06:43:43;;;;;;;8.88;3.28;;;13.20;99.90;;;;;;5110396;28;20020;-66
2023/10/15 06:46:09;;;;;;;6.05;2.90;;;13.30;99.90;;;;;;5092170;28;20114;-67
2023/10/15 06:48:35;;;;;;;9.25;3.35;;;13.30;99.90;;;;;;5111143;28;20039;-67
2023/10/15 06:51:07;;;;;;;6.32;2.92;;;13.40;99.90;;;;;;5111290;28;20030;-67
2023/10/15 06:53:34;;;;;;;7.88;3.33;;;13.40;99.90;;;;;;5111589;28;20072;-67
2023/10/15 06:56:00;;;;;;;8.65;3.30;;;13.40;99.90;;;;;;5111239;28;20035;-67
2023/10/15 06:58:28;;;;;;;8.00;3.60;;;13.50;99.90;;;;;;5110968;28;20051;-67
2023/10/15 07:00:56;;;;;;;8.63;3.60;;;13.50;99.90;;;;;;5110706;28;20048;-67
2023/10/15 07:03:21;;;;;;;8.75;4.05;;;13.60;99.90;;;;;;5111314;28;20031;-67
2023/10/15 07:05:47;;;;;;;8.18;4.03;;;13.60;99.90;;;;;;5111068;28;20028;-67
2023/10/15 07:08:13;;;;;;;7.43;4.30;;;13.40;99.90;;;;;;5110990;28;20520;-66
2023/10/15 07:10:39;;;;;;;10.15;4.80;;;13.30;99.90;;;;;;5111530;28;20039;-67
2023/10/15 07:13:05;;;;;;;8.25;4.38;;;13.20;99.90;;;;;;5110979;28;20016;-67
2023/10/15 07:15:35;;;;;;;7.85;4.22;;;13.10;99.90;;;;;;5110694;28;20032;-67
2023/10/15 07:18:01;;;;;;;7.18;3.72;;;13.00;99.90;;;;;;5111209;28;20045;-67
2023/10/15 07:20:27;;;;;;;9.77;4.00;;;12.90;99.90;;;;;;5110826;28;20627;-67
2023/10/15 07:22:53;;;;;;;7.78;3.78;;;12.80;99.90;;;;;;5111475;28;20115;-67
2023/10/15 07:25:20;;;;;;;8.15;4.05;;;12.90;99.90;;;;;;5110816;28;20053;-67
2023/10/15 07:27:48;;;;;;;7.82;3.92;;;12.80;99.90;;;;;;5111370;28;20402;-67
2023/10/15 07:30:15;;;;;;;8.73;3.38;;;12.80;99.90;;;;;;5114235;28;20489;-66
2023/10/15 07:32:43;;;;;;;8.35;3.58;;;12.80;99.90;;;;;;5114526;28;20059;-67
2023/10/15 07:35:13;;;;;;;6.13;3.10;;;12.80;99.90;;;;;;5114571;28;20023;-67
2023/10/15 07:37:44;;;;;;;8.77;3.55;;;12.80;99.90;;;;;;5096103;28;20088;-67
2023/10/15 07:40:17;;;;;;;7.88;3.15;;;12.80;99.90;;;;;;5095589;28;20035;-67
2023/10/15 07:42:45;;;;;;;8.75;3.22;;;12.90;99.90;;;;;;5114196;28;20039;-67
2023/10/15 07:45:11;;;;;;;9.13;3.50;;;12.90;99.90;;;;;;5095710;28;20028;-67
2023/10/15 07:47:37;;;;;;;8.00;3.20;;;13.00;99.90;;;;;;5114197;28;20020;-67
2023/10/15 07:50:07;;;;;;;5.50;2.75;;;12.90;99.90;;;;;;5114166;28;20035;-67
2023/10/15 07:52:33;;;;;;;7.53;3.45;;;13.00;99.90;;;;;;5114335;28;20043;-67
2023/10/15 07:54:59;;;;;;;8.20;3.45;;;13.10;99.90;;;;;;5114194;28;20028;-67
2023/10/15 07:57:26;;;;;;;8.20;3.35;;;13.10;99.90;;;;;;5114299;28;20094;-67
2023/10/15 07:59:58;;;;;;;7.95;3.13;;;13.10;99.90;;;;;;5113512;28;20023;-67
2023/10/15 08:02:27;;;;;;;6.93;3.08;;;13.10;99.90;;;;;;5114273;28;20537;-67
2023/10/15 08:04:56;;;;;;;7.90;3.03;;;13.10;99.90;;;;;;5095665;28;20077;-67
2023/10/15 08:07:22;;;;;;;9.05;3.20;;;13.20;99.90;;;;;;5113963;28;20035;-67
2023/10/15 08:09:51;;;;;;;6.25;3.03;;;13.20;99.90;;;;;;5113805;28;20417;-66
2023/10/15 08:12:17;;;;;;;8.20;3.08;;;13.30;99.90;;;;;;5114043;28;20020;-66
2023/10/15 08:14:47;;;;;;;8.95;3.35;;;13.40;99.90;;;;;;5113523;28;20023;-68
2023/10/15 08:17:16;;;;;;;8.60;3.25;;;13.60;99.90;;;;;;5113799;28;20019;-68
2023/10/15 08:19:41;;;;;;;9.90;3.90;;;13.80;99.90;;;;;;5113619;28;20050;-68
2023/10/15 08:22:08;;;;;;;7.97;3.75;;;14.10;99.90;;;;;;5114041;28;20059;-68
2023/10/15 08:24:35;;;;;;;9.13;3.85;;;14.30;99.90;;;;;;5113356;28;20513;-67
2023/10/15 08:27:01;;;;;;;13.30;4.15;;;14.40;99.90;;;;;;5113488;28;20019;-67
2023/10/15 08:29:26;;;;;;;10.70;4.38;;;14.50;99.90;;;;;;5113250;28;20055;-67
2023/10/15 08:31:53;;;;;;;10.75;4.60;;;14.50;99.90;;;;;;5113192;28;20047;-67
2023/10/15 08:34:19;;;;;;;10.38;4.40;;;14.60;99.90;;;;;;5113307;28;20036;-67
2023/10/15 08:36:45;;;;;;;12.93;4.80;;;14.70;99.90;;;;;;5113348;28;20062;-67
2023/10/15 08:39:10;;;;;;;8.45;4.32;;;14.60;99.90;;;;;;5113197;28;20128;-67
2023/10/15 08:41:40;;;;;;;9.82;4.50;;;14.80;99.90;;;;;;5113364;28;20015;-67
2023/10/15 08:44:08;;;;;;;10.75;4.20;;;14.80;99.90;;;;;;5112817;28;20028;-67
2023/10/15 08:46:37;;;;;;;10.80;4.60;;;14.80;99.90;;;;;;5113338;28;20494;-68
2023/10/15 08:49:07;;;;;;;12.77;4.15;;;14.80;99.90;;;;;;5112997;28;20039;-67
2023/10/15 08:51:37;;;;;;;11.38;3.60;;;14.60;99.90;;;;;;5094772;28;20019;-67
2023/10/15 08:54:04;;;;;;;12.13;4.25;;;14.50;99.90;;;;;;5113055;28;20036;-67
2023/10/15 08:56:33;;;;;;;9.90;3.53;;;14.30;99.90;;;;;;5112592;28;20027;-67
2023/10/15 08:59:00;;;;;;;9.52;3.60;;;14.30;99.90;;;;;;5113275;28;20111;-67
2023/10/15 09:01:26;;;;;;;9.23;3.00;;;14.30;99.90;;;;;;5112857;28;20023;-67
2023/10/15 09:03:55;;;;;;;10.00;2.95;;;14.20;99.90;;;;;;5112721;28;20024;-67
2023/10/15 09:06:21;;;;;;;7.90;2.85;;;14.20;99.90;;;;;;5112933;28;20034;-67
2023/10/15 09:08:46;;;;;;;7.53;2.72;;;14.20;99.90;;;;;;5112468;28;20028;-67
2023/10/15 09:11:13;;;;;;;8.02;2.97;;;14.20;99.90;;;;;;5112415;28;20027;-67
2023/10/15 09:13:39;;;;;;;9.80;3.03;;;14.30;99.90;;;;;;5112437;28;20038;-67
2023/10/15 09:16:06;;;;;;;8.25;2.90;;;14.20;99.90;;;;;;5112573;28;20027;-68
2023/10/15 09:18:35;;;;;;;5.75;3.00;;;14.30;99.90;;;;;;5112534;28;20058;-67
2023/10/15 09:21:04;;;;;;;8.88;3.60;;;14.30;99.90;;;;;;5112771;28;20107;-67
2023/10/15 09:23:37;;;;;;;10.20;3.63;;;14.30;99.90;;;;;;5112303;28;20031;-67
2023/10/15 09:26:07;;;;;;;5.45;2.80;;;14.40;99.90;;;;;;5112144;28;20084;-67
2023/10/15 09:28:35;;;;;;;7.55;2.88;;;14.50;99.90;;;;;;5112148;28;20467;-68
2023/10/15 09:31:11;;;;;;;8.85;3.58;;;14.50;99.90;;;;;;5112228;28;20394;-68
2023/10/15 09:33:39;;;;;;;6.40;3.00;;;14.60;99.90;;;;;;5112183;28;20032;-68
2023/10/15 09:36:05;;;;;;;9.50;4.00;;;14.70;99.90;;;;;;5112616;28;20027;-67
2023/10/15 09:38:32;;;;;;;7.88;3.25;;;14.70;99.90;;;;;;5111994;28;20520;-67
2023/10/15 09:41:01;;;;;;;8.93;3.65;;;14.80;99.90;;;;;;5111664;28;20012;-68
2023/10/15 09:43:28;;;;;;;6.32;3.42;;;14.90;99.90;;;;;;5111956;28;20047;-67
2023/10/15 09:45:54;;;;;;;7.30;3.47;;;15.00;99.90;;;;;;5112382;28;20482;-67
2023/10/15 09:48:24;;;;;;;11.10;4.20;;;15.10;99.90;;;;;;5111838;28;20035;-67
2023/10/15 09:50:53;;;;;;;9.75;3.65;;;15.20;99.90;;;;;;5111525;28;20035;-67
2023/10/15 09:53:21;;;;;;;9.82;4.45;;;15.30;99.90;;;;;;5111653;28;20032;-67
2023/10/15 09:55:47;;;;;;;12.15;4.97;;;15.40;99.90;;;;;;5111380;28;20038;-67
2023/10/15 09:58:15;;;;;;;12.13;4.82;;;15.70;99.90;;;;;;5111669;28;20028;-67
2023/10/15 10:03:40;;;;;;;9.65;4.22;;;16.10;99.90;;;;;;5111878;28;20023;-66
2023/10/15 10:06:27;;;;;;;8.43;4.35;;;16.30;99.90;;;;;;5111816;28;20030;-67
2023/10/15 10:09:36;;;;;;;11.25;4.10;;;16.50;99.90;;;;;;5111605;28;20406;-66
2023/10/15 10:12:20;;;;;;;9.40;4.30;;;16.50;99.90;;;;;;5111514;28;20508;-66
2023/10/15 10:15:01;;;;;;;9.25;3.83;;;16.70;99.90;;;;;;5111581;28;20024;-66
2023/10/15 10:17:28;;;;;;;9.63;4.00;;;16.80;99.90;;;;;;5111574;28;20544;-67
2023/10/15 10:19:55;;;;;;;5.70;2.88;;;16.90;99.90;;;;;;5111335;28;20028;-69
2023/10/15 10:22:28;;;;;;;10.55;3.15;;;16.90;99.90;;;;;;5111557;28;20049;-67
2023/10/15 10:24:58;;;;;;;11.25;3.58;;;17.10;99.90;;;;;;5111292;28;20042;-67
2023/10/15 10:27:24;;;;;;;6.88;2.95;;;17.20;99.90;;;;;;5111499;28;20071;-67
2023/10/15 10:29:54;;;;;;;7.35;2.83;;;17.20;99.90;;;;;;5092606;28;20588;-67
2023/10/15 10:32:22;;;;;;;7.40;3.05;;;17.20;99.90;;;;;;5090941;28;20449;-67
2023/10/15 10:35:14;;;;;;;6.57;2.88;;;17.20;99.90;;;;;;5073064;28;20035;-67
2023/10/15 10:38:00;;;;;;;9.05;2.90;;;17.00;99.90;;;;;;5091222;28;20036;-67
2023/10/15 10:40:52;;;;;;;7.63;3.08;;;16.90;99.90;;;;;;5090973;28;20095;-66
2023/10/15 10:43:27;;;;;;;9.18;2.58;;;16.80;99.90;;;;;;5091039;28;20039;-67
2023/10/15 10:45:57;;;;;;;7.30;2.72;;;16.80;99.90;;;;;;5090912;28;20123;-67
2023/10/15 10:48:27;;;;;;;9.18;2.90;;;16.80;99.90;;;;;;5090823;28;20418;-68
2023/10/15 10:51:08;;;;;;;8.60;2.65;;;16.80;99.90;;;;;;5090817;28;20402;-67
2023/10/15 10:53:34;;;;;;;10.63;5.25;;;16.90;99.90;;;;;;5090978;28;20028;-68
2023/10/15 10:56:04;;;;;;;22.30;16.67;;;17.00;99.90;;;;;;5090938;28;20016;-67
2023/10/15 10:58:30;;;;;;;11.48;8.15;;;17.00;99.90;;;;;;5090895;28;20035;-68
2023/10/15 11:00:59;;;;;;;12.35;6.15;;;17.10;99.90;;;;;;5090740;28;20020;-68
2023/10/15 11:03:25;;;;;;;8.82;4.00;;;17.10;99.90;;;;;;5092389;28;20135;-68
2023/10/15 11:05:54;;;;;;;7.70;3.45;;;17.30;99.90;;;;;;5094791;28;20410;-67
2023/10/15 11:08:22;;;;;;;8.98;2.90;;;17.40;99.90;;;;;;5094094;28;20082;-67
2023/10/15 11:10:48;;;;;;;9.25;3.70;;;17.50;99.90;;;;;;5094753;28;20027;-68
2023/10/15 11:13:18;;;;;;;22.67;16.08;;;17.70;99.90;;;;;;5094534;28;20483;-68
2023/10/15 11:15:50;;;;;;;17.00;13.20;;;17.80;99.90;;;;;;5076727;28;20402;-67
2023/10/15 11:18:26;;;;;;;55.72;43.65;;;17.80;99.90;;;;;;5094424;28;20020;-68
2023/10/15 11:20:52;;;;;;;17.23;11.88;;;17.90;99.90;;;;;;5094437;28;20111;-67
2023/10/15 11:23:26;;;;;;;36.30;28.80;;;17.80;99.90;;;;;;5094480;28;20016;-68
2023/10/15 11:25:54;;;;;;;31.77;23.75;;;17.90;99.90;;;;;;5094051;28;20473;-68
2023/10/15 11:28:20;;;;;;;21.45;14.45;;;18.00;99.90;;;;;;5094047;28;20079;-68
2023/10/15 11:30:46;;;;;;;31.92;25.15;;;18.10;99.90;;;;;;5094325;28;20062;-67
2023/10/15 11:33:17;;;;;;;10.75;7.50;;;18.10;99.90;;;;;;5094715;28;20047;-67
2023/10/15 11:35:48;;;;;;;8.73;4.10;;;18.30;99.90;;;;;;5094002;28;20056;-67
2023/10/15 11:38:14;;;;;;;5.97;2.72;;;18.40;99.90;;;;;;5094160;28;20020;-67
2023/10/15 11:40:40;;;;;;;8.70;4.63;;;18.50;99.90;;;;;;5094081;28;20020;-67
2023/10/15 11:43:18;;;;;;;9.20;4.95;;;18.50;99.90;;;;;;5093931;28;20028;-67
2023/10/15 11:45:47;;;;;;;7.45;4.20;;;18.70;99.90;;;;;;5093854;28;20016;-67
2023/10/15 11:48:21;;;;;;;7.22;3.70;;;18.80;99.90;;;;;;5093740;28;20039;-64
2023/10/15 11:50:48;;;;;;;8.88;4.70;;;18.90;99.90;;;;;;5093989;28;20111;-64
2023/10/15 11:53:20;;;;;;;6.88;3.28;;;18.90;99.90;;;;;;5093800;28;20024;-64
2023/10/15 11:55:52;;;;;;;6.78;2.72;;;19.00;99.90;;;;;;5093727;28;20020;-64
2023/10/15 11:58:19;;;;;;;5.85;2.20;;;18.90;99.90;;;;;;5093832;28;20039;-64
2023/10/15 12:00:48;;;;;;;9.38;3.70;;;19.00;99.90;;;;;;5094101;28;20031;-67
2023/10/15 12:03:20;;;;;;;5.93;2.67;;;18.90;99.90;;;;;;5093771;28;20030;-67
2023/10/15 12:05:51;;;;;;;5.90;2.90;;;19.00;99.90;;;;;;5093270;28;20134;-68
2023/10/15 12:08:21;;;;;;;10.00;3.90;;;18.90;99.90;;;;;;5093385;28;20028;-67
2023/10/15 12:10:47;;;;;;;6.28;2.97;;;18.80;99.90;;;;;;5093659;28;20398;-68
2023/10/15 12:13:14;;;;;;;6.15;2.53;;;18.80;99.90;;;;;;5093537;28;20501;-67
2023/10/15 12:15:43;;;;;;;4.40;2.25;;;18.70;99.90;;;;;;5093026;28;20453;-68
2023/10/15 12:18:09;;;;;;;4.82;2.35;;;18.70;99.90;;;;;;5093774;28;20111;-68
2023/10/15 12:20:36;;;;;;;8.45;2.15;;;18.70;99.90;;;;;;5092831;28;20047;-67
2023/10/15 12:23:02;;;;;;;5.07;1.80;;;18.60;99.90;;;;;;5093278;28;20611;-67
2023/10/15 12:25:28;;;;;;;3.63;1.70;;;18.50;99.90;;;;;;5093483;28;20032;-67
2023/10/15 12:27:54;;;;;;;6.20;2.42;;;18.60;99.90;;;;;;5095568;28;20445;-67
2023/10/15 12:30:28;;;;;;;4.97;1.92;;;18.60;99.90;;;;;;5113399;28;20035;-67
2023/10/15 12:32:55;;;;;;;3.75;1.73;;;18.70;99.90;;;;;;5113503;28;20077;-68
2023/10/15 12:35:21;;;;;;;5.15;1.70;;;18.70;99.90;;;;;;5113085;28;20110;-68
2023/10/15 12:37:49;;;;;;;4.85;1.95;;;18.70;99.90;;;;;;5113302;28;20027;-68
2023/10/15 12:40:21;;;;;;;5.88;1.92;;;18.80;99.90;;;;;;5113528;28;20035;-70
2023/10/15 12:42:47;;;;;;;5.15;2.88;;;18.70;99.90;;;;;;5113653;28;20402;-65
2023/10/15 12:45:13;;;;;;;7.18;2.75;;;18.80;99.90;;;;;;5113252;28;20035;-65
2023/10/15 12:47:39;;;;;;;4.88;1.90;;;18.80;99.90;;;;;;5113060;28;20027;-66
2023/10/15 12:50:14;;;;;;;3.45;1.67;;;18.70;99.90;;;;;;5112782;28;20039;-67
2023/10/15 12:52:42;;;;;;;4.63;1.70;;;18.70;99.90;;;;;;5112985;28;20028;-68
2023/10/15 12:55:08;;;;;;;3.33;1.67;;;18.60;99.90;;;;;;5113373;27;20035;-67
2023/10/15 12:57:33;;;;;;;6.18;1.90;;;18.60;99.90;;;;;;5112912;28;20513;-68
2023/10/15 13:00:00;;;;;;;5.25;1.70;;;18.70;99.90;;;;;;5113053;28;20474;-68
2023/10/15 13:02:27;;;;;;;3.88;1.70;;;18.70;99.90;;;;;;5112566;28;20031;-67
2023/10/15 13:04:53;;;;;;;3.72;1.50;;;18.70;99.90;;;;;;5112937;28;20023;-67
2023/10/15 13:07:18;;;;;;;3.08;1.50;;;18.70;99.90;;;;;;5112671;28;20454;-67
2023/10/15 13:09:44;;;;;;;2.67;1.50;;;18.60;99.90;;;;;;5112706;28;20054;-67
2023/10/15 13:12:10;;;;;;;3.58;1.58;;;18.80;99.90;;;;;;5112717;28;20031;-67
2023/10/15 13:14:36;;;;;;;3.45;1.40;;;19.00;99.90;;;;;;5112637;28;20019;-66